Time;durP1;ratioP1;P1;durP2;ratioP2;P2;SDS_P1;SDS_P2;PMS_P1;PMS_P2;Temp;Humidity;BMP_temperature;BMP_pressure;BME280_temperature;BME280_humidity;BME280_pressure;Samples;Min_cycle;Max_cycle;Signal;HPM_P1;HPM_P2
2021/10/07 00:03:16;;;;;;;6.03;4.40;;;;;;;11.73;60.76;101867.91;7976543;28;20029;-67
2021/10/07 00:07:07;;;;;;;8.65;4.72;;;;;;;11.73;60.66;101867.09;7982627;28;20060;-67
2021/10/07 00:10:58;;;;;;;5.70;4.05;;;;;;;11.73;60.77;101873.19;7978090;28;20029;-67
2021/10/07 00:14:48;;;;;;;10.15;4.28;;;;;;;11.73;60.83;101878.44;7987824;28;20033;-67
2021/10/07 00:18:41;;;;;;;11.27;4.88;;;;;;;11.74;60.69;101874.03;7980448;28;20025;-67
2021/10/07 00:22:31;;;;;;;6.82;4.93;;;;;;;11.74;60.98;101867.00;7984861;28;20685;-67
2021/10/07 00:26:22;;;;;;;8.70;5.07;;;;;;;11.75;60.84;101878.38;7970604;28;20030;-67
2021/10/07 00:30:16;;;;;;;11.32;5.55;;;;;;;11.73;60.83;101878.44;7972263;28;20620;-67
2021/10/07 00:41:48;;;;;;;12.75;6.60;;;;;;;11.73;61.22;101894.25;7976196;28;20037;-67
2021/10/07 00:45:38;;;;;;;16.15;6.40;;;;;;;11.73;61.03;101901.31;7966918;28;20049;-67
2021/10/07 00:49:32;;;;;;;10.27;5.97;;;;;;;11.75;61.24;101907.31;7978629;28;20029;-67
2021/10/07 00:53:23;;;;;;;19.20;6.20;;;;;;;11.77;60.88;101903.66;7978025;28;20123;-67
2021/10/07 00:57:17;;;;;;;9.63;5.90;;;;;;;11.78;60.90;101910.63;7977370;28;20025;-67
2021/10/07 01:01:08;;;;;;;12.93;5.78;;;;;;;11.80;61.22;101911.41;7970214;28;20449;-67
2021/10/07 01:04:58;;;;;;;16.45;6.68;;;;;;;11.82;61.02;101906.06;7976202;28;20465;-67
2021/10/07 01:08:49;;;;;;;11.27;6.40;;;;;;;11.80;60.95;101911.41;7982056;28;20549;-67
2021/10/07 01:12:40;;;;;;;13.70;7.68;;;;;;;11.83;61.09;101921.78;7981777;28;20041;-67
2021/10/07 01:16:31;;;;;;;12.82;6.93;;;;;;;11.83;61.06;101921.78;7976646;28;20039;-67
2021/10/07 01:20:21;;;;;;;11.93;7.00;;;;;;;11.84;61.03;101928.75;7970458;28;20050;-67
2021/10/07 01:24:12;;;;;;;17.27;7.10;;;;;;;11.84;61.13;101926.13;7970378;28;20039;-67
2021/10/07 01:28:02;;;;;;;13.80;7.85;;;;;;;11.83;60.96;101927.03;7972437;28;20024;-67
2021/10/07 01:31:53;;;;;;;21.73;9.32;;;;;;;11.85;61.23;101927.81;7973641;28;20032;-67
2021/10/07 01:35:44;;;;;;;24.02;9.85;;;;;;;11.86;60.98;101936.53;7974563;28;20606;-67
2021/10/07 01:39:34;;;;;;;14.73;8.75;;;;;;;11.86;61.10;101934.75;7977038;28;20088;-67
2021/10/07 01:43:25;;;;;;;19.30;10.07;;;;;;;11.87;60.98;101933.84;7984267;28;20025;-67
2021/10/07 01:47:16;;;;;;;19.25;10.98;;;;;;;11.87;61.13;101935.63;7984600;28;20033;-67
2021/10/07 01:51:06;;;;;;;26.63;9.77;;;;;;;11.88;61.11;101937.31;7987915;28;20026;-67
2021/10/07 01:54:57;;;;;;;16.88;9.15;;;;;;;11.90;61.25;101943.34;7989103;28;20037;-67
2021/10/07 01:58:47;;;;;;;15.68;9.45;;;;;;;11.91;61.16;101945.03;7977007;28;20025;-67
2021/10/07 02:02:38;;;;;;;16.67;8.57;;;;;;;11.91;61.10;101945.91;7974152;28;20049;-67
2021/10/07 02:06:29;;;;;;;18.77;9.73;;;;;;;11.92;61.12;101944.97;7975693;28;20033;-69
2021/10/07 02:10:20;;;;;;;23.00;10.57;;;;;;;11.94;61.15;101944.88;7979572;28;20034;-67
2021/10/07 02:14:10;;;;;;;22.50;11.50;;;;;;;11.94;61.22;101948.34;7985244;28;20033;-67
2021/10/07 02:18:01;;;;;;;16.88;8.90;;;;;;;11.94;61.15;101952.78;7974651;28;20037;-67
2021/10/07 02:21:52;;;;;;;15.82;8.65;;;;;;;11.92;61.16;101955.50;7982845;28;20029;-69
2021/10/07 02:25:42;;;;;;;18.08;9.10;;;;;;;11.93;61.26;101956.34;7983283;28;20045;-69
2021/10/07 02:29:33;;;;;;;18.00;9.38;;;;;;;11.93;61.24;101965.13;7985042;28;20091;-67
2021/10/07 02:33:25;;;;;;;14.48;8.77;;;;;;;11.93;61.30;101959.84;7985716;28;20404;-67
2021/10/07 02:37:16;;;;;;;17.08;8.93;;;;;;;11.95;61.31;101968.50;7986920;28;20631;-67
2021/10/07 02:41:06;;;;;;;15.02;8.38;;;;;;;11.95;61.35;101965.88;7988077;28;20741;-67
2021/10/07 02:44:57;;;;;;;17.98;9.50;;;;;;;11.96;60.86;101974.63;7972777;28;20026;-67
2021/10/07 02:48:47;;;;;;;17.27;7.50;;;;;;;11.96;61.26;101978.09;7975808;28;20083;-67
2021/10/07 02:52:38;;;;;;;17.38;8.52;;;;;;;11.96;61.04;101971.97;7976737;28;20044;-67
2021/10/07 02:56:29;;;;;;;16.80;8.18;;;;;;;11.96;61.17;101975.47;7959791;28;20026;-68
2021/10/07 03:00:20;;;;;;;18.75;9.63;;;;;;;11.92;61.34;101973.94;7977366;28;20564;-67
2021/10/07 03:04:10;;;;;;;15.52;8.05;;;;;;;11.98;61.29;101988.53;7977789;28;20036;-67
2021/10/07 03:08:01;;;;;;;13.18;7.82;;;;;;;11.97;61.19;101997.38;7979935;28;20055;-67
2021/10/07 03:11:52;;;;;;;14.93;8.10;;;;;;;11.98;61.21;101996.44;7978627;28;20467;-66
2021/10/07 03:15:43;;;;;;;17.98;8.77;;;;;;;11.98;61.08;101993.81;7975373;28;20034;-69
2021/10/07 03:19:33;;;;;;;18.42;7.53;;;;;;;11.98;61.24;101999.06;7983929;28;20040;-67
2021/10/07 03:23:24;;;;;;;18.30;7.85;;;;;;;11.98;61.17;102001.69;7973064;28;20684;-69
2021/10/07 03:27:14;;;;;;;22.00;8.55;;;;;;;11.97;61.21;102008.78;7987435;28;20111;-67
2021/10/07 03:31:05;;;;;;;13.88;8.32;;;;;;;11.96;61.31;102006.22;7976435;28;20025;-66
2021/10/07 03:34:56;;;;;;;17.30;8.07;;;;;;;11.94;61.52;102008.91;7970826;28;20044;-67
2021/10/07 03:38:46;;;;;;;19.13;7.80;;;;;;;11.97;61.14;102016.69;7972174;28;20026;-67
2021/10/07 03:42:38;;;;;;;18.27;8.00;;;;;;;11.96;61.03;102025.50;7973215;28;20629;-67
2021/10/07 03:46:28;;;;;;;13.15;6.53;;;;;;;11.95;61.25;102026.44;7965268;28;20465;-69
2021/10/07 03:50:21;;;;;;;14.23;7.85;;;;;;;11.96;61.25;102025.50;7977579;28;20030;-67
2021/10/07 03:54:12;;;;;;;12.60;7.10;;;;;;;11.95;61.29;102031.69;7979926;28;20037;-67
2021/10/07 03:58:02;;;;;;;12.05;6.47;;;;;;;11.95;61.31;102031.69;7980751;28;20055;-67
2021/10/07 04:01:53;;;;;;;14.32;7.20;;;;;;;11.96;61.34;102037.81;7979887;28;20033;-67
2021/10/07 04:05:44;;;;;;;15.52;8.07;;;;;;;11.96;61.37;102043.09;7981167;28;20045;-67
2021/10/07 04:09:34;;;;;;;14.30;7.45;;;;;;;11.91;61.11;102045.09;7982482;28;20037;-67
2021/10/07 04:13:25;;;;;;;13.57;7.28;;;;;;;11.95;61.39;102062.44;7988805;28;20043;-67
2021/10/07 04:17:16;;;;;;;21.00;8.27;;;;;;;11.98;61.28;102070.16;7980626;28;20025;-68
2021/10/07 04:21:07;;;;;;;18.23;8.25;;;;;;;11.98;61.25;102081.56;7967084;28;20030;-69
2021/10/07 04:24:57;;;;;;;14.48;7.97;;;;;;;11.98;61.43;102076.28;7973522;28;20708;-67
2021/10/07 04:28:48;;;;;;;17.75;8.75;;;;;;;11.99;61.35;102079.78;7975198;28;20033;-67
2021/10/07 04:32:38;;;;;;;18.52;8.88;;;;;;;11.98;61.45;102081.56;7975058;28;20043;-67
2021/10/07 04:36:29;;;;;;;17.83;8.95;;;;;;;11.97;61.28;102076.41;7975740;28;20087;-67
2021/10/07 04:40:20;;;;;;;16.88;9.18;;;;;;;11.96;61.47;102088.72;7975377;28;20490;-67
2021/10/07 04:44:10;;;;;;;13.38;7.85;;;;;;;11.95;61.46;102081.72;7976132;28;20035;-67
2021/10/07 04:48:01;;;;;;;15.82;8.13;;;;;;;11.97;61.44;102087.78;7964507;28;20039;-67
2021/10/07 04:51:51;;;;;;;17.38;7.45;;;;;;;11.96;61.46;102091.34;7982005;28;20045;-67
2021/10/07 04:55:42;;;;;;;14.63;7.82;;;;;;;11.96;61.46;102091.34;7980386;28;20530;-67
2021/10/07 04:59:33;;;;;;;14.30;8.07;;;;;;;11.96;61.22;102096.59;7955566;28;20667;-67
2021/10/07 05:03:23;;;;;;;14.07;8.25;;;;;;;11.94;61.37;102093.19;7967639;28;20025;-67
2021/10/07 05:07:14;;;;;;;12.15;6.65;;;;;;;11.97;61.25;102100.94;7984924;28;20589;-67
2021/10/07 05:11:05;;;;;;;17.95;6.97;;;;;;;11.96;61.46;102107.13;7974884;28;20423;-67
2021/10/07 05:14:56;;;;;;;15.18;7.60;;;;;;;11.95;61.24;102108.06;7977259;28;20094;-68
2021/10/07 05:18:46;;;;;;;15.05;7.25;;;;;;;11.95;61.34;102109.84;7972622;28;20034;-67
2021/10/07 05:22:37;;;;;;;11.63;6.03;;;;;;;11.95;61.35;102104.56;7963810;28;20075;-67
2021/10/07 05:26:28;;;;;;;12.52;7.00;;;;;;;11.86;61.35;102105.91;7964527;28;20040;-67
2021/10/07 05:30:18;;;;;;;10.80;5.85;;;;;;;11.94;61.23;102116.88;7967258;28;20525;-67
2021/10/07 05:34:09;;;;;;;10.23;6.43;;;;;;;11.94;61.37;102129.19;7967446;28;20078;-67
2021/10/07 05:38:00;;;;;;;10.82;6.40;;;;;;;11.91;61.27;102121.47;7967435;28;20087;-67
2021/10/07 05:41:51;;;;;;;10.80;5.47;;;;;;;11.92;61.06;102133.72;7968372;28;20069;-67
2021/10/07 05:45:42;;;;;;;13.13;7.25;;;;;;;11.91;61.20;102140.75;7985745;28;20043;-67
2021/10/07 05:49:33;;;;;;;10.48;5.57;;;;;;;11.91;61.34;102150.44;7983102;28;20079;-67
2021/10/07 05:53:23;;;;;;;13.60;6.25;;;;;;;11.91;61.44;102153.91;7986174;28;20540;-67
2021/10/07 05:57:14;;;;;;;13.13;6.05;;;;;;;11.89;61.17;102153.16;7987869;28;20025;-67
2021/10/07 06:01:04;;;;;;;9.90;5.95;;;;;;;11.88;61.20;102156.72;7970790;28;20048;-67
2021/10/07 06:04:55;;;;;;;14.70;6.28;;;;;;;11.87;61.37;102157.63;7977733;28;20063;-67
2021/10/07 06:08:46;;;;;;;14.27;6.13;;;;;;;11.87;61.24;102168.19;7979140;28;20047;-67
2021/10/07 06:12:36;;;;;;;10.40;5.25;;;;;;;11.85;61.31;102167.41;7975935;28;20040;-68
2021/10/07 06:16:27;;;;;;;9.15;5.60;;;;;;;11.84;61.19;102175.38;7984491;28;20545;-67
2021/10/07 06:20:29;;;;;;;11.85;5.93;;;;;;;11.80;61.07;102174.69;8005441;28;20449;-67
2021/10/07 06:24:20;;;;;;;9.07;5.55;;;;;;;11.80;61.04;102174.69;8004992;28;20067;-67
2021/10/07 06:28:10;;;;;;;9.35;5.53;;;;;;;11.70;61.08;102164.69;8003781;28;20037;-67
2021/10/07 06:32:01;;;;;;;9.65;5.65;;;;;;;11.82;61.20;102187.75;7979099;28;20085;-67
2021/10/07 06:35:52;;;;;;;12.00;5.38;;;;;;;11.77;61.01;102180.09;7978748;28;20082;-67
2021/10/07 06:39:43;;;;;;;8.63;5.22;;;;;;;11.82;61.13;102190.38;7985216;28;20037;-67
2021/10/07 06:43:33;;;;;;;12.40;6.07;;;;;;;11.81;60.70;102188.72;8005194;28;20134;-67
2021/10/07 06:47:27;;;;;;;8.75;5.30;;;;;;;11.83;60.95;102184.19;8004603;28;20040;-67
2021/10/07 06:51:17;;;;;;;7.75;4.93;;;;;;;11.86;60.89;102191.94;8004422;28;20037;-67
2021/10/07 06:55:12;;;;;;;9.23;5.20;;;;;;;11.87;61.03;102198.91;7989639;28;20094;-67
2021/10/07 06:59:04;;;;;;;8.18;4.90;;;;;;;11.90;60.94;102198.75;7972890;28;20737;-67
2021/10/07 07:02:58;;;;;;;7.65;4.30;;;;;;;11.98;61.10;102212.38;7973166;28;20119;-67
2021/10/07 07:06:50;;;;;;;11.00;5.57;;;;;;;12.10;61.29;102213.56;7982497;28;20102;-67
2021/10/07 07:10:41;;;;;;;11.10;6.50;;;;;;;12.22;61.28;102224.31;7978294;28;20579;-66
2021/10/07 07:14:32;;;;;;;14.93;7.07;;;;;;;12.34;61.25;102225.47;7971667;28;20033;-67
2021/10/07 07:18:22;;;;;;;12.30;6.75;;;;;;;12.47;61.37;102230.03;7975702;28;20029;-67
2021/10/07 07:22:15;;;;;;;14.02;7.38;;;;;;;12.61;61.26;102233.72;7987174;28;20032;-67
2021/10/07 07:26:05;;;;;;;11.20;5.90;;;;;;;12.71;61.30;102241.06;7989090;28;20091;-67
2021/10/07 07:29:56;;;;;;;15.18;6.55;;;;;;;12.80;61.14;102231.81;7996350;28;20029;-67
2021/10/07 07:33:47;;;;;;;9.07;5.85;;;;;;;12.84;61.19;102242.13;7977584;28;20038;-67
2021/10/07 07:37:38;;;;;;;14.25;6.07;;;;;;;12.86;61.13;102239.38;7982352;28;20175;-67
2021/10/07 07:41:29;;;;;;;12.95;5.93;;;;;;;12.84;60.99;102239.50;7971839;28;20037;-67
2021/10/07 07:45:19;;;;;;;8.32;5.35;;;;;;;12.87;60.99;102249.84;7971485;28;20037;-67
2021/10/07 07:49:10;;;;;;;11.15;5.38;;;;;;;12.89;60.68;102253.25;7971086;28;20044;-67
2021/10/07 07:53:00;;;;;;;10.35;5.65;;;;;;;12.89;60.81;102255.88;7971186;28;20041;-66
2021/10/07 07:56:51;;;;;;;9.75;5.75;;;;;;;12.89;60.77;102257.66;7975183;28;20041;-67
2021/10/07 08:00:42;;;;;;;12.45;5.68;;;;;;;12.93;60.70;102256.59;7959908;28;20045;-67
2021/10/07 08:04:32;;;;;;;9.65;5.32;;;;;;;13.02;60.38;102257.84;7964370;28;20032;-67
2021/10/07 08:08:23;;;;;;;7.32;4.07;;;;;;;13.31;60.41;102265.03;7957870;28;20060;-67
2021/10/07 08:12:14;;;;;;;6.97;4.10;;;;;;;13.68;60.24;102259.41;7963546;28;20047;-67
2021/10/07 08:16:05;;;;;;;6.82;3.75;;;;;;;14.29;59.79;102266.41;7981858;28;20051;-67
2021/10/07 08:19:55;;;;;;;7.00;3.08;;;;;;;14.91;59.49;102259.97;7993700;28;20032;-67
2021/10/07 08:23:48;;;;;;;4.40;2.53;;;;;;;15.27;59.10;102262.91;8001786;28;20029;-67
2021/10/07 08:27:39;;;;;;;4.97;3.00;;;;;;;15.29;58.70;102262.88;8003891;28;20068;-67
2021/10/07 08:31:29;;;;;;;6.82;3.42;;;;;;;15.08;58.40;102262.41;8002515;28;20118;-67
2021/10/07 08:35:20;;;;;;;6.35;3.13;;;;;;;14.97;58.46;102267.50;8001256;28;20033;-67
2021/10/07 08:39:12;;;;;;;4.68;3.28;;;;;;;14.86;58.38;102279.69;8001806;28;20408;-67
2021/10/07 08:43:03;;;;;;;8.13;3.30;;;;;;;14.72;58.73;102285.81;8001370;28;20710;-67
2021/10/07 08:46:54;;;;;;;5.63;3.30;;;;;;;14.59;58.77;102280.44;7986528;28;20028;-66
2021/10/07 08:50:45;;;;;;;6.53;3.10;;;;;;;14.57;58.88;102284.97;7982989;28;20084;-67
2021/10/07 08:54:36;;;;;;;6.50;3.72;;;;;;;14.66;59.37;102281.78;7986388;28;20038;-67
2021/10/07 08:58:28;;;;;;;7.07;3.63;;;;;;;14.81;59.47;102285.28;7993942;28;20119;-66
2021/10/07 09:02:28;;;;;;;5.40;3.25;;;;;;;14.90;59.42;102278.56;7975881;28;20390;-67
2021/10/07 09:06:19;;;;;;;6.60;3.78;;;;;;;15.15;59.58;102299.91;7980648;28;20033;-67
2021/10/07 09:10:09;;;;;;;5.22;3.08;;;;;;;15.29;59.47;102299.94;7980919;28;20084;-67
2021/10/07 09:14:08;;;;;;;6.40;3.40;;;;;;;15.39;58.90;102301.03;7982854;28;20033;-68
2021/10/07 09:18:05;;;;;;;5.03;3.17;;;;;;;15.46;58.53;102294.38;7972958;28;20033;-67
2021/10/07 09:22:11;;;;;;;8.23;3.50;;;;;;;15.50;58.33;102295.06;7979237;28;20024;-67
2021/10/07 09:26:10;;;;;;;4.65;3.03;;;;;;;15.49;58.21;102293.34;7975425;28;20045;-67
2021/10/07 09:30:03;;;;;;;8.75;3.17;;;;;;;15.46;57.88;102289.09;7980351;28;20025;-67
2021/10/07 09:33:58;;;;;;;9.48;2.80;;;;;;;15.42;57.91;102292.88;7983503;28;20041;-67
2021/10/07 09:37:53;;;;;;;7.07;3.08;;;;;;;15.40;57.80;102294.78;7990240;28;20048;-67
2021/10/07 09:41:43;;;;;;;10.70;3.15;;;;;;;15.33;57.39;102295.28;7974408;28;20033;-67
2021/10/07 09:45:34;;;;;;;4.70;2.42;;;;;;;15.29;57.09;102302.56;7975162;28;20051;-67
2021/10/07 09:49:35;;;;;;;3.08;2.28;;;;;;;15.26;56.93;102294.78;7975050;28;20033;-67
2021/10/07 09:53:26;;;;;;;4.03;2.47;;;;;;;15.21;56.76;102286.25;7974474;28;20501;-67
2021/10/07 09:57:16;;;;;;;5.55;2.88;;;;;;;15.26;56.74;102290.34;7974942;28;20033;-67
2021/10/07 10:01:07;;;;;;;3.90;2.63;;;;;;;15.30;56.27;102293.66;7975165;28;20076;-67
2021/10/07 10:04:59;;;;;;;3.63;1.92;;;;;;;15.37;56.20;102313.53;7974380;28;20044;-67
2021/10/07 10:08:50;;;;;;;5.15;2.90;;;;;;;15.37;56.36;102308.22;7987020;28;20037;-67
2021/10/07 10:12:41;;;;;;;5.95;2.85;;;;;;;15.44;56.04;102304.25;7978839;28;20057;-67
2021/10/07 10:16:35;;;;;;;6.88;3.70;;;;;;;15.49;55.79;102307.44;7974335;28;20037;-67
2021/10/07 10:20:29;;;;;;;4.15;2.53;;;;;;;15.51;55.85;102312.63;7974125;28;20041;-67
2021/10/07 10:24:20;;;;;;;7.07;3.72;;;;;;;15.52;55.72;102312.53;7972380;28;20079;-67
2021/10/07 10:28:11;;;;;;;6.05;3.13;;;;;;;15.51;55.69;102315.28;7974041;28;20033;-67
2021/10/07 10:32:03;;;;;;;5.10;2.92;;;;;;;15.50;55.45;102311.78;7973270;28;20031;-67
2021/10/07 10:35:54;;;;;;;5.40;3.80;;;;;;;15.51;55.51;102318.78;7973415;28;20544;-67
2021/10/07 10:39:47;;;;;;;5.45;3.28;;;;;;;15.52;55.58;102317.84;7974199;28;20108;-67
2021/10/07 10:43:38;;;;;;;5.85;3.28;;;;;;;15.50;55.55;102319.72;7973837;28;20144;-67
2021/10/07 10:47:39;;;;;;;10.38;4.15;;;;;;;15.40;55.68;102308.03;7966353;28;20030;-67
2021/10/07 10:51:31;;;;;;;4.97;3.50;;;;;;;15.45;55.51;102331.56;7965323;28;20030;-67
2021/10/07 10:55:27;;;;;;;6.38;4.07;;;;;;;15.36;55.30;102321.56;7972560;28;20574;-67
2021/10/07 10:59:22;;;;;;;4.32;2.60;;;;;;;15.33;55.43;102330.56;7981650;28;20037;-67
2021/10/07 11:03:17;;;;;;;5.05;3.10;;;;;;;15.31;55.79;102331.59;7981943;28;20448;-67
2021/10/07 11:07:19;;;;;;;4.75;3.40;;;;;;;15.31;55.50;102329.78;7983654;28;20709;-67
2021/10/07 11:11:23;;;;;;;7.65;3.90;;;;;;;15.32;55.46;102341.22;7976686;28;20021;-67
2021/10/07 11:15:14;;;;;;;5.07;2.70;;;;;;;15.33;55.63;102330.56;7990639;28;20033;-68
2021/10/07 11:19:04;;;;;;;5.75;3.50;;;;;;;15.33;55.25;102332.34;7973963;28;20462;-67
2021/10/07 11:22:59;;;;;;;5.75;2.95;;;;;;;15.34;55.12;102337.53;7983055;28;20029;-67
2021/10/07 11:26:50;;;;;;;4.90;2.60;;;;;;;15.35;54.93;102347.19;7985971;28;20685;-67
2021/10/07 11:30:43;;;;;;;3.97;2.42;;;;;;;15.34;54.81;102340.19;7987335;28;20086;-67
2021/10/07 11:34:33;;;;;;;4.75;3.03;;;;;;;15.38;54.62;102343.47;7971594;28;20037;-68
2021/10/07 11:38:24;;;;;;;5.13;3.20;;;;;;;15.40;54.85;102346.91;7973627;28;20040;-67
2021/10/07 11:42:37;;;;;;;8.63;3.10;;;;;;;15.39;54.44;102347.84;7992492;28;20033;-68
2021/10/07 11:46:28;;;;;;;4.70;3.20;;;;;;;15.43;54.69;102347.53;8002499;28;20045;-68
2021/10/07 11:50:22;;;;;;;5.25;3.47;;;;;;;15.45;54.23;102347.47;8002428;28;20268;-67
2021/10/07 11:54:18;;;;;;;4.90;3.38;;;;;;;15.44;54.05;102349.25;8001249;28;20539;-67
2021/10/07 11:58:09;;;;;;;6.00;3.33;;;;;;;15.43;54.28;102344.91;7981143;28;20038;-68
2021/10/07 12:02:00;;;;;;;7.47;3.60;;;;;;;15.43;54.09;102346.69;7970488;28;20646;-68
2021/10/07 12:05:55;;;;;;;5.75;3.22;;;;;;;15.42;54.32;102339.69;7984830;28;20036;-67
2021/10/07 12:09:46;;;;;;;6.78;3.90;;;;;;;15.42;54.25;102340.53;7996746;28;20043;-67
2021/10/07 12:13:42;;;;;;;6.95;3.45;;;;;;;15.41;54.07;102335.38;7982379;28;20029;-67
2021/10/07 12:17:32;;;;;;;6.35;4.25;;;;;;;15.42;54.15;102331.75;7989433;28;20119;-67
2021/10/07 12:21:28;;;;;;;10.23;4.15;;;;;;;15.39;53.92;102334.59;7991424;28;20025;-67
2021/10/07 12:25:19;;;;;;;6.25;3.33;;;;;;;15.36;53.96;102334.78;7992158;28;20036;-68
2021/10/07 12:29:18;;;;;;;6.65;3.85;;;;;;;15.35;53.78;102333.94;8001901;28;20029;-67
2021/10/07 12:33:14;;;;;;;6.50;3.42;;;;;;;15.30;53.81;102332.53;8002203;28;20052;-67
2021/10/07 12:37:08;;;;;;;4.65;3.17;;;;;;;15.26;53.83;102332.69;8002097;28;20662;-67
2021/10/07 12:40:59;;;;;;;6.20;3.22;;;;;;;15.24;53.82;102331.09;8000960;28;20068;-67
2021/10/07 12:44:50;;;;;;;8.00;3.40;;;;;;;15.24;53.97;102336.38;8002008;28;20514;-67
2021/10/07 12:48:52;;;;;;;4.47;2.90;;;;;;;15.25;54.10;102335.41;8001529;28;20160;-68
2021/10/07 12:52:55;;;;;;;3.95;2.80;;;;;;;15.27;54.26;102336.19;8001794;28;20029;-67
2021/10/07 12:56:47;;;;;;;8.30;3.55;;;;;;;15.29;54.27;102337.00;8001729;28;20124;-67
2021/10/07 13:00:38;;;;;;;3.50;2.50;;;;;;;15.31;54.22;102336.88;8001565;28;20041;-67
2021/10/07 13:04:28;;;;;;;3.95;2.33;;;;;;;15.35;54.11;102339.25;7993266;28;20035;-67
2021/10/07 13:08:20;;;;;;;5.68;3.30;;;;;;;15.40;54.05;102333.66;8000975;28;20580;-67
2021/10/07 13:12:10;;;;;;;5.95;2.83;;;;;;;15.47;53.91;102335.81;7977244;28;20590;-68
2021/10/07 13:16:01;;;;;;;5.13;2.65;;;;;;;15.52;54.24;102332.88;7953819;28;20732;-68
2021/10/07 13:19:52;;;;;;;7.13;3.13;;;;;;;15.58;54.13;102337.78;7958382;28;20041;-68
2021/10/07 13:23:43;;;;;;;10.00;3.15;;;;;;;15.64;54.05;102340.03;7982664;28;20036;-67
2021/10/07 13:27:34;;;;;;;6.57;3.25;;;;;;;15.69;53.57;102337.94;8001840;28;20124;-67
2021/10/07 13:31:24;;;;;;;5.63;2.90;;;;;;;15.73;53.60;102347.38;8001551;28;20441;-68
2021/10/07 13:35:15;;;;;;;7.78;3.17;;;;;;;15.73;53.42;102350.03;8003180;28;20608;-68
2021/10/07 13:39:06;;;;;;;3.42;2.00;;;;;;;15.72;53.35;102348.31;8007034;28;20501;-67
2021/10/07 13:43:00;;;;;;;4.03;2.38;;;;;;;15.71;53.38;102352.78;8006139;28;20559;-67
2021/10/07 13:46:52;;;;;;;5.55;2.35;;;;;;;15.73;53.40;102357.97;8006403;28;20036;-68
2021/10/07 13:50:44;;;;;;;4.47;2.03;;;;;;;15.77;53.43;102350.69;8006235;28;20095;-68
2021/10/07 13:54:36;;;;;;;5.05;2.38;;;;;;;15.77;53.40;102350.69;8001428;28;20036;-68
2021/10/07 13:58:27;;;;;;;3.90;1.88;;;;;;;15.76;53.69;102346.31;7989113;28;20456;-67
2021/10/07 14:02:17;;;;;;;3.85;1.98;;;;;;;15.75;53.38;102347.31;7982054;28;20044;-68
2021/10/07 14:06:09;;;;;;;7.72;2.97;;;;;;;15.73;53.10;102348.25;7974914;28;20034;-68
2021/10/07 14:10:00;;;;;;;4.97;2.67;;;;;;;15.69;53.01;102340.59;7974292;28;20061;-68
2021/10/07 14:13:50;;;;;;;6.30;3.25;;;;;;;15.71;53.08;102347.47;7990887;28;20049;-68
2021/10/07 14:17:41;;;;;;;6.43;3.63;;;;;;;15.69;53.03;102354.69;7974019;28;20029;-67
2021/10/07 14:21:32;;;;;;;5.47;3.38;;;;;;;15.66;52.96;102348.75;7972883;28;20482;-68
2021/10/07 14:25:23;;;;;;;9.00;4.32;;;;;;;15.64;52.86;102348.81;7973469;28;20040;-67
2021/10/07 14:29:13;;;;;;;6.82;3.60;;;;;;;15.63;52.83;102351.56;7973966;28;20109;-67
2021/10/07 14:33:05;;;;;;;5.18;3.70;;;;;;;15.62;52.72;102347.25;7973389;28;20025;-68
2021/10/07 14:36:55;;;;;;;6.35;3.38;;;;;;;15.58;52.70;102348.38;7983920;28;20041;-68
2021/10/07 14:40:46;;;;;;;5.05;3.58;;;;;;;15.56;52.85;102348.47;7985105;28;20030;-67
2021/10/07 14:44:37;;;;;;;7.90;3.70;;;;;;;15.53;52.39;102345.16;7988285;28;20041;-67
2021/10/07 14:48:28;;;;;;;6.38;3.60;;;;;;;15.51;52.64;102350.56;7986419;28;20059;-68
2021/10/07 14:52:18;;;;;;;6.55;3.97;;;;;;;15.49;52.53;102351.63;7999270;28;20605;-67
2021/10/07 14:56:10;;;;;;;5.22;3.35;;;;;;;15.46;52.80;102346.50;7977762;28;20026;-67
2021/10/07 15:00:04;;;;;;;5.47;3.28;;;;;;;15.43;52.92;102344.91;7985113;28;20041;-67
2021/10/07 15:03:54;;;;;;;6.03;3.30;;;;;;;15.40;52.84;102345.09;7971980;28;20029;-67
2021/10/07 15:07:45;;;;;;;5.90;3.53;;;;;;;15.40;52.75;102346.91;7972661;28;20049;-67
2021/10/07 15:11:37;;;;;;;6.53;4.10;;;;;;;15.34;52.61;102342.81;7987599;28;20025;-67
2021/10/07 15:15:28;;;;;;;5.72;3.67;;;;;;;15.33;52.63;102349.09;7978674;28;20040;-67
2021/10/07 15:19:18;;;;;;;6.18;3.38;;;;;;;15.31;52.51;102355.41;7968852;28;20035;-67
2021/10/07 15:23:09;;;;;;;4.75;3.42;;;;;;;15.26;52.42;102347.72;7980013;28;20025;-67
2021/10/07 15:26:59;;;;;;;3.88;3.15;;;;;;;15.17;52.74;102337.69;8003671;28;20496;-67
2021/10/07 15:30:50;;;;;;;7.20;3.60;;;;;;;15.21;52.50;102347.16;8003844;28;20028;-67
2021/10/07 15:34:41;;;;;;;4.78;3.40;;;;;;;15.18;52.41;102352.66;8008822;28;20037;-67
2021/10/07 15:38:32;;;;;;;4.55;3.22;;;;;;;15.16;52.70;102359.84;8002571;28;20043;-67
2021/10/07 15:42:23;;;;;;;4.47;2.97;;;;;;;15.13;52.56;102358.22;8004002;28;20467;-67
2021/10/07 15:46:15;;;;;;;4.05;3.00;;;;;;;15.09;52.83;102353.22;8003199;28;20519;-67
2021/10/07 15:50:07;;;;;;;5.28;3.03;;;;;;;15.07;52.58;102361.25;8002976;28;20571;-67
2021/10/07 15:53:57;;;;;;;6.55;3.35;;;;;;;15.03;52.58;102359.75;8002652;28;20525;-67
2021/10/07 15:57:48;;;;;;;5.53;3.05;;;;;;;14.98;52.60;102356.53;7995507;28;20486;-68
2021/10/07 16:01:40;;;;;;;7.15;3.70;;;;;;;14.94;52.65;102364.75;7974537;28;20130;-68
2021/10/07 16:05:31;;;;;;;6.82;4.07;;;;;;;14.89;52.52;102369.44;7983978;28;20057;-67
2021/10/07 16:09:26;;;;;;;4.00;3.03;;;;;;;14.83;52.63;102364.56;7969898;28;20092;-67
2021/10/07 16:13:16;;;;;;;5.47;3.60;;;;;;;14.79;52.70;102372.66;7977838;28;20563;-68
2021/10/07 16:17:07;;;;;;;7.55;3.67;;;;;;;14.73;52.71;102367.75;7981504;28;20029;-67
2021/10/07 16:20:57;;;;;;;9.00;3.50;;;;;;;14.67;52.90;102373.38;7998266;28;20033;-67
2021/10/07 16:24:48;;;;;;;4.53;3.45;;;;;;;14.60;52.84;102380.00;8002218;28;20040;-67
2021/10/07 16:28:39;;;;;;;3.95;3.08;;;;;;;14.54;53.06;102385.66;7989388;28;20046;-67
2021/10/07 16:32:30;;;;;;;5.15;2.75;;;;;;;14.47;53.22;102380.78;7984639;28;20167;-67
2021/10/07 16:36:20;;;;;;;6.25;3.22;;;;;;;14.30;53.07;102368.53;7975274;28;20048;-72
2021/10/07 16:40:11;;;;;;;6.13;3.13;;;;;;;14.30;53.14;102389.69;7962886;28;20057;-73
2021/10/07 16:44:02;;;;;;;4.53;2.88;;;;;;;14.19;53.34;102386.81;7982549;28;20538;-71
2021/10/07 16:47:52;;;;;;;3.95;2.75;;;;;;;14.15;53.36;102402.00;7981742;28;20037;-66
2021/10/07 16:51:45;;;;;;;6.90;3.25;;;;;;;14.07;53.20;102404.22;7975058;28;20029;-66
2021/10/07 16:55:37;;;;;;;4.95;3.17;;;;;;;13.96;53.26;102404.00;7980597;28;20044;-70
2021/10/07 16:59:27;;;;;;;6.00;3.00;;;;;;;13.91;53.43;102413.97;7977820;28;20034;-68
2021/10/07 17:03:18;;;;;;;4.95;3.20;;;;;;;13.81;53.52;102412.75;7980023;28;20127;-70
2021/10/07 17:07:09;;;;;;;4.45;2.83;;;;;;;13.75;53.43;102423.66;7981852;28;20102;-72
2021/10/07 17:10:59;;;;;;;3.20;2.67;;;;;;;13.65;53.39;102423.31;7976991;28;20121;-71
2021/10/07 17:14:51;;;;;;;6.70;2.85;;;;;;;13.57;53.35;102428.16;7978526;28;20032;-70
2021/10/07 17:18:42;;;;;;;4.63;3.22;;;;;;;13.47;53.52;102434.00;8007597;28;20032;-68
2021/10/07 17:22:33;;;;;;;5.57;3.47;;;;;;;13.42;53.46;102434.25;8007295;28;20523;-69
2021/10/07 17:26:23;;;;;;;6.00;3.50;;;;;;;13.28;53.56;102428.81;7976713;28;20533;-69
2021/10/07 17:30:17;;;;;;;5.10;3.00;;;;;;;13.27;53.46;102438.53;7994320;28;20025;-69
2021/10/07 17:34:07;;;;;;;3.47;2.92;;;;;;;13.20;53.52;102441.56;7989417;28;20114;-68
2021/10/07 17:37:58;;;;;;;5.70;3.40;;;;;;;13.14;53.55;102449.81;7985836;28;20024;-70
2021/10/07 17:41:49;;;;;;;6.68;3.95;;;;;;;13.07;53.65;102451.91;7980264;28;20253;-70
2021/10/07 17:45:39;;;;;;;4.20;3.15;;;;;;;13.02;53.63;102443.38;7975657;28;20068;-71
2021/10/07 17:49:31;;;;;;;9.27;3.90;;;;;;;12.92;53.62;102452.72;7975026;28;20037;-71
2021/10/07 17:53:23;;;;;;;6.25;4.00;;;;;;;12.84;53.77;102453.09;7992052;28;20037;-68
2021/10/07 17:57:14;;;;;;;4.50;3.47;;;;;;;12.84;53.55;102468.94;7991765;28;20028;-67
2021/10/07 18:01:04;;;;;;;5.95;3.70;;;;;;;12.79;53.76;102468.28;7991583;28;20441;-67